Report METAR

 

KSJC - San Jose, California, USA
Distance from station: NE 14km
Dati ricevuti: 09/04/2020 17:53
Molto nuvoloso
Molto nuvoloso
 Vento da S
Vento: S 7 km/h
Temperatura: 13°C
P.to Rugiada: 9°C
Umidità: 77%
Barometro: 1016.3 hPa
Nuvole: Molto nuvoloso
Visibility: 16 km
Cloud details: Few Clouds 366 m
Molto nuvoloso 1097 m
Molto nuvoloso 1524 m
2020/04/09 15:53 KSJC 091553Z 19004KT 10SM FEW012 BKN036 BKN050 13/09 A3001 RMK AO2 SLP162 T01280089
KNUQ - Moffett Nas/Mtn, California, USA
Distance from station: N 14km
Dati ricevuti: 21/11/2019 17:56
DATI Obsoleti

 
Barometro: 1011.2 hPa
2019/11/21 16:56 KNUQ 211656Z AUTO A2986 RMK AO2 SLP116 PWINO $
 
KPAO - Palo Alto, California, USA
Distance from station: NNO 23km
Dati ricevuti: 09/04/2020 17:47
Coperto
Coperto
 Vento da Variabile
Vento: Variabile 7 km/h
Temperatura: 13°C
P.to Rugiada: 9°C
Umidità: 77%
Barometro: 1016.6 hPa
Nuvole: Coperto
Visibility: 16 km
Cloud details: Molto nuvoloso 1524 m
Coperto 6096 m
2020/04/09 15:47 KPAO 091547Z VRB04KT 10SM BKN050 OVC200 13/09 A3002
KRHV - San Jose/Reid, California, USA
Distance from station: ENE 19km
Dati ricevuti: 09/04/2020 17:48
Coperto
Coperto
 Vento da SSE
Vento: SSE 11 km/h
Temperatura: 13°C
P.to Rugiada: 9°C
Umidità: 77%
Barometro: 1016.6 hPa
Nuvole: Coperto
Visibility: 16 km
Cloud details: Few Clouds 762 m
Coperto 1524 m
2020/04/09 15:48 KRHV 091548Z 16006KT 10SM FEW025 OVC050 13/09 A3002
 
KOAK - Oakland, California, USA
Distance from station: NNO 50km
Dati ricevuti: 09/04/2020 17:53
Coperto
Coperto
 Vento da SE
Vento: SE 11 km/h
Temperatura: 14°C
P.to Rugiada: 9°C
Umidità: 72%
Barometro: 1017.3 hPa
Nuvole: Coperto
Visibility: 16 km
Cloud details: Few Clouds 305 m
Coperto 1158 m
2020/04/09 15:53 KOAK 091553Z 13006KT 10SM FEW010 OVC038 14/09 A3004 RMK AO2 SLP171 T01440089
KSQL - San Carlos Airpo, California, USA
Distance from station: NO 34km
Dati ricevuti: 09/04/2020 17:47
Coperto
Coperto
 Vento da calmo
Vento: Calma
Temperatura: 13°C
P.to Rugiada: 9°C
Umidità: 77%
Barometro: 1016.9 hPa
Nuvole: Coperto
Visibility: 16 km
Cloud details: Molto nuvoloso 853 m
Coperto 1097 m
2020/04/09 15:47 KSQL 091547Z 00000KT 10SM BKN028 OVC036 13/09 A3003
 
KSFO - San Francisco, California, USA
Distance from station: NO 49km
Dati ricevuti: 09/04/2020 17:56
Molto nuvoloso
Molto nuvoloso
 Vento da ESE
Vento: ESE 6 km/h
Temperatura: 13°C
P.to Rugiada: 9°C
Umidità: 77%
Barometro: 1016.3 hPa
Nuvole: Molto nuvoloso
Visibility: 16 km
Cloud details: Few Clouds 610 m
Parz. nuvoloso 853 m
Molto nuvoloso 1097 m
2020/04/09 15:56 KSFO 091556Z 12003KT 10SM FEW020 SCT028 BKN036 13/09 A3001 RMK AO2 SLP163 T01280089
KE16 - San Martin, California, USA
Distance from station: ESE 43km
Dati ricevuti: 14/11/2019 10:35
DATI Obsoleti
Coperto
Coperto
 Vento da SE
Vento: SE 11 km/h
Temperatura: 12°C
P.to Rugiada: 10°C
Umidità: 88%
Barometro: 1017.6 hPa
Nuvole: Coperto
Visibility: 16 km
Cloud details: Coperto 427 m
2019/11/14 09:35 KE16 140935Z AUTO 13006KT 10SM OVC014 12/10 A3005 RMK AO2
 
KWVI - Watsonville, California, USA
Distance from station: SSE 44km
Dati ricevuti: 09/04/2020 18:27
Coperto
Coperto
 Vento da E
Vento: E 7 km/h
Temperatura: 12°C
P.to Rugiada: 11°C
Umidità: 94%
Barometro: 1017.3 hPa
Nuvole: Coperto
Visibility: 16 km
Cloud details: Few Clouds 244 m
Molto nuvoloso 457 m
Coperto 640 m
2020/04/09 16:27 KWVI 091627Z AUTO 09004KT 10SM FEW008 BKN015 OVC021 12/11 A3004 RMK AO2 T01220111
KHAF - Half Moon Bay, California, USA
Distance from station: ONO 50km
Dati ricevuti: 09/04/2020 18:35
Coperto
Coperto
 Vento da calmo
Vento: Calma
Temperatura: 13°C
P.to Rugiada: 9°C
Umidità: 77%
Barometro: 1016.9 hPa
Nuvole: Coperto
Visibility: 16 km
Cloud details: Molto nuvoloso 640 m
Coperto 914 m
2020/04/09 16:35 KHAF 091635Z AUTO 00000KT 10SM BKN021 OVC030 13/09 A3003 RMK AO2
 
KHWD - Hayward, California, USA
Distance from station: N 44km
Dati ricevuti: 09/04/2020 17:54
Coperto
Coperto
 Vento da NE
Vento: NE 9 km/h
Temperatura: 14°C
P.to Rugiada: 8°C
Umidità: 67%
Barometro: 1016.6 hPa
Nuvole: Coperto
Visibility: 16 km
Cloud details: Few Clouds 457 m
Coperto 1463 m
2020/04/09 15:54 KHWD 091554Z 05005KT 10SM FEW015 OVC048 14/08 A3002 RMK AO2 SLP174 T01390083
KLVK - Livermore, California, USA
Distance from station: NNE 51km
Dati ricevuti: 09/04/2020 17:53
Mist, Coperto
Mist, Coperto
 Vento da ENE
Vento: ENE 13 km/h
Temperatura: 11°C
P.to Rugiada: 9°C
Umidità: 88%
Barometro: 1016.6 hPa
Summary: Mist
Nuvole: Coperto
Visibility: 10 km
Cloud details: Coperto 762 m
2020/04/09 15:53 KLVK 091553Z 07007KT 6SM BR OVC025 11/09 A3002 RMK AO2 SLP166 T01060094